createdAt,value
2023-04-26T00:01:07.062Z,7.58
2023-04-26T00:03:34.220Z,7.98
2023-04-26T00:06:04.578Z,8.55
2023-04-26T00:08:31.815Z,8.51
2023-04-26T00:10:58.727Z,8.17
2023-04-26T00:13:26.865Z,7.88
2023-04-26T00:15:54.059Z,7.66
2023-04-26T00:18:21.147Z,7.49
2023-04-26T00:20:48.168Z,7.38
2023-04-26T00:23:15.416Z,7.26
2023-04-26T00:25:42.850Z,7.19
2023-04-26T00:28:10.267Z,7.09
2023-04-26T00:30:38.013Z,7.02
2023-04-26T00:33:05.663Z,6.95
2023-04-26T00:35:32.881Z,6.87
2023-04-26T00:37:59.662Z,6.83
2023-04-26T00:40:26.540Z,6.78
2023-04-26T00:42:57.595Z,6.72
2023-04-26T00:45:25.021Z,6.68
2023-04-26T00:47:51.897Z,6.65
2023-04-26T00:50:19.075Z,6.61
2023-04-26T00:52:46.378Z,6.53
2023-04-26T00:55:14.463Z,6.48
2023-04-26T00:57:41.563Z,6.43
2023-04-26T01:00:10.460Z,6.39
2023-04-26T01:05:47.542Z,6.28
2023-04-26T01:08:33.535Z,6.27
2023-04-26T01:11:10.781Z,6.19
2023-04-26T01:14:17.412Z,6.13
2023-04-26T01:17:04.739Z,6.08
2023-04-26T01:19:51.952Z,6.10
2023-04-26T01:22:37.928Z,6.95
2023-04-26T01:25:24.809Z,7.78
2023-04-26T01:28:08.358Z,8.41
2023-04-26T01:30:44.163Z,8.00
2023-04-26T01:33:30.621Z,7.41
2023-04-26T01:35:59.423Z,7.00
2023-04-26T01:38:27.922Z,6.73
2023-04-26T01:41:16.841Z,6.52
2023-04-26T01:44:01.955Z,6.32
2023-04-26T01:46:30.278Z,6.18
2023-04-26T01:49:17.235Z,6.07
2023-04-26T01:51:45.456Z,5.96
2023-04-26T01:54:14.179Z,5.87
2023-04-26T01:57:02.848Z,5.77
2023-04-26T01:59:31.205Z,5.67
2023-04-26T02:02:38.234Z,5.58
2023-04-26T02:05:06.867Z,5.46
2023-04-26T02:07:56.421Z,5.51
2023-04-26T02:10:43.440Z,6.42
2023-04-26T02:13:34.600Z,7.32
2023-04-26T02:16:06.202Z,7.97
2023-04-26T02:18:55.380Z,8.36
2023-04-26T02:21:26.729Z,8.70
2023-04-26T02:23:54.763Z,8.96
2023-04-26T02:26:24.126Z,9.17
2023-04-26T02:28:54.933Z,9.36
2023-04-26T02:31:24.295Z,9.36
2023-04-26T02:33:54.699Z,8.65
2023-04-26T02:36:24.430Z,7.92
2023-04-26T02:38:51.499Z,7.39
2023-04-26T02:41:19.470Z,6.99
2023-04-26T02:43:51.816Z,6.68
2023-04-26T02:46:40.086Z,6.39
2023-04-26T02:49:19.716Z,6.06
2023-04-26T02:51:59.490Z,5.79
2023-04-26T02:54:51.728Z,5.58
2023-04-26T02:57:28.236Z,5.39
2023-04-26T02:59:55.902Z,5.25
2023-04-26T03:02:25.033Z,5.11
2023-04-26T03:04:52.752Z,4.96
2023-04-26T03:07:21.385Z,4.84
2023-04-26T03:09:49.871Z,4.70
2023-04-26T03:12:17.568Z,4.58
2023-04-26T03:14:44.522Z,4.46
2023-04-26T03:17:12.539Z,4.36
2023-04-26T03:19:45.016Z,4.26
2023-04-26T03:22:23.317Z,4.15
2023-04-26T03:24:51.529Z,4.05
2023-04-26T03:27:21.634Z,3.97
2023-04-26T03:30:01.735Z,3.87
2023-04-26T03:32:28.902Z,3.78
2023-04-26T03:34:55.967Z,3.70
2023-04-26T03:37:24.040Z,3.62
2023-04-26T03:39:53.964Z,3.69
2023-04-26T03:42:21.612Z,4.43
2023-04-26T03:44:50.963Z,5.20
2023-04-26T03:47:24.574Z,5.79
2023-04-26T03:49:54.616Z,6.26
2023-04-26T03:52:22.961Z,6.56
2023-04-26T03:54:50.097Z,6.84
2023-04-26T03:57:17.282Z,7.10
2023-04-26T03:59:44.619Z,7.20
2023-04-26T04:02:12.636Z,6.70
2023-04-26T04:04:41.307Z,5.96
2023-04-26T04:07:09.689Z,5.45
2023-04-26T04:09:36.752Z,5.05
2023-04-26T04:12:04.356Z,4.74
2023-04-26T04:14:34.432Z,4.45
2023-04-26T04:17:03.968Z,4.23
2023-04-26T04:19:31.826Z,4.67
2023-04-26T04:21:58.797Z,5.33
2023-04-26T04:24:26.060Z,5.84
2023-04-26T04:26:53.093Z,6.21
2023-04-26T04:29:21.933Z,6.52
2023-04-26T04:31:50.212Z,6.44
2023-04-26T04:34:17.387Z,5.77
2023-04-26T04:36:44.785Z,5.23
2023-04-26T04:39:21.881Z,4.82
2023-04-26T04:41:49.364Z,4.57
2023-04-26T04:44:28.481Z,4.40
2023-04-26T04:47:16.165Z,4.35
2023-04-26T04:49:47.312Z,5.08
2023-04-26T04:52:25.782Z,5.97
2023-04-26T04:55:32.908Z,6.53
2023-04-26T04:58:40.394Z,6.80
2023-04-26T05:02:08.095Z,6.20
2023-04-26T05:05:34.712Z,5.62
2023-04-26T05:09:03.601Z,5.75
2023-04-26T05:12:30.353Z,6.73
2023-04-26T05:15:18.446Z,7.26
2023-04-26T05:17:47.679Z,6.76
2023-04-26T05:20:36.161Z,6.19
2023-04-26T05:23:28.720Z,5.80
2023-04-26T05:25:58.166Z,6.09
2023-04-26T05:28:36.465Z,6.83
2023-04-26T05:31:05.742Z,7.15
2023-04-26T05:34:12.456Z,6.79
2023-04-26T05:37:20.054Z,6.19
2023-04-26T05:39:51.885Z,5.90
2023-04-26T05:42:58.832Z,5.82
2023-04-26T05:46:31.844Z,6.60
2023-04-26T05:49:19.215Z,7.35
2023-04-26T05:51:47.456Z,7.40
2023-04-26T05:54:56.833Z,7.00
2023-04-26T05:58:25.320Z,6.66
2023-04-26T06:01:52.357Z,6.53
2023-04-26T06:04:54.469Z,6.49
2023-04-26T06:07:21.985Z,6.48
2023-04-26T06:09:49.600Z,6.45
2023-04-26T06:12:17.526Z,6.56
2023-04-26T06:14:44.833Z,7.28
2023-04-26T06:17:13.216Z,8.04
2023-04-26T06:19:40.245Z,8.53
2023-04-26T06:22:07.444Z,8.33
2023-04-26T06:24:34.901Z,7.95
2023-04-26T06:27:01.769Z,7.67
2023-04-26T06:29:31.649Z,7.48
2023-04-26T06:31:58.965Z,7.36
2023-04-26T06:34:26.050Z,7.27
2023-04-26T06:36:54.425Z,7.22
2023-04-26T06:39:21.854Z,7.20
2023-04-26T06:44:15.944Z,7.16
2023-04-26T06:47:23.032Z,7.17
2023-04-26T06:50:50.726Z,7.18
2023-04-26T06:54:17.976Z,7.29
2023-04-26T06:57:45.968Z,7.30
2023-04-26T07:01:12.325Z,7.37
2023-04-26T07:04:20.103Z,7.35
2023-04-26T07:07:46.425Z,7.43
2023-04-26T07:11:04.227Z,7.61
2023-04-26T07:14:18.031Z,7.81
2023-04-26T07:17:46.321Z,7.85
2023-04-26T07:20:49.747Z,7.93
2023-04-26T07:24:17.028Z,8.12
2023-04-26T07:27:27.639Z,8.29
2023-04-26T07:30:56.483Z,8.39
2023-04-26T07:34:07.899Z,8.39
2023-04-26T07:37:35.455Z,8.37
2023-04-26T07:41:02.763Z,8.28
2023-04-26T07:44:31.665Z,8.44
2023-04-26T07:47:59.169Z,8.58
2023-04-26T07:51:27.710Z,8.78
2023-04-26T07:54:57.744Z,8.96
2023-04-26T07:58:25.640Z,9.09
2023-04-26T08:01:54.311Z,9.35
2023-04-26T08:05:22.341Z,9.37
2023-04-26T08:08:51.318Z,9.17
2023-04-26T08:12:18.819Z,8.99
2023-04-26T08:15:46.063Z,9.08
2023-04-26T08:19:13.808Z,9.30
2023-04-26T08:22:41.138Z,9.39
2023-04-26T08:26:10.374Z,9.31
2023-04-26T08:29:37.710Z,9.14
2023-04-26T08:33:05.344Z,9.24
2023-04-26T08:36:35.388Z,9.19
2023-04-26T08:40:03.226Z,9.06
2023-04-26T08:43:30.510Z,9.20
2023-04-26T08:46:57.976Z,9.48
2023-04-26T08:50:25.248Z,9.53
2023-04-26T08:53:53.285Z,9.50
2023-04-26T08:57:23.129Z,9.20
2023-04-26T09:00:50.920Z,9.01
2023-04-26T09:04:19.872Z,8.91
2023-04-26T09:07:50.096Z,9.04
2023-04-26T09:11:17.508Z,9.13
2023-04-26T09:14:45.523Z,9.02
2023-04-26T09:18:15.143Z,8.74
2023-04-26T09:21:46.022Z,8.50
2023-04-26T09:25:31.727Z,8.52
2023-04-26T09:29:02.067Z,8.86
2023-04-26T09:32:29.407Z,9.19
2023-04-26T09:36:03.370Z,9.35
2023-04-26T09:39:31.684Z,9.49
2023-04-26T09:43:03.656Z,9.52
2023-04-26T09:46:34.628Z,9.10
2023-04-26T09:50:02.069Z,8.77
2023-04-26T09:53:31.773Z,8.49
2023-04-26T09:57:00.065Z,8.39
2023-04-26T10:00:27.135Z,8.44
2023-04-26T10:03:57.707Z,8.81
2023-04-26T10:07:24.664Z,8.85
2023-04-26T10:10:53.980Z,8.94
2023-04-26T10:14:21.375Z,9.09
2023-04-26T10:17:50.806Z,9.15
2023-04-26T10:21:17.673Z,9.23
2023-04-26T10:24:49.662Z,9.26
2023-04-26T10:28:16.030Z,9.25
2023-04-26T10:31:43.384Z,9.36
2023-04-26T10:35:10.539Z,9.70
2023-04-26T10:38:41.123Z,9.96
2023-04-26T10:42:08.598Z,9.87
2023-04-26T10:45:38.936Z,9.62
2023-04-26T10:49:10.429Z,9.36
2023-04-26T10:52:34.947Z,9.19
2023-04-26T10:56:20.454Z,9.09
2023-04-26T10:59:54.859Z,9.13
2023-04-26T11:03:38.308Z,9.55
2023-04-26T11:07:10.102Z,9.63
2023-04-26T11:10:37.414Z,9.58
2023-04-26T11:14:05.413Z,9.37
2023-04-26T11:17:38.799Z,9.24
2023-04-26T11:21:10.365Z,9.22
2023-04-26T11:24:37.687Z,9.34
2023-04-26T11:28:12.086Z,9.29
2023-04-26T11:31:39.099Z,9.59
2023-04-26T11:35:15.552Z,10.13
2023-04-26T11:38:42.926Z,10.49
2023-04-26T11:42:10.437Z,10.75
2023-04-26T11:45:39.081Z,10.76
2023-04-26T11:49:06.506Z,10.58
2023-04-26T11:52:36.016Z,10.37
2023-04-26T11:56:12.213Z,10.29
2023-04-26T11:59:46.638Z,10.12
2023-04-26T12:03:15.712Z,10.04
2023-04-26T12:06:44.252Z,10.04
2023-04-26T12:10:59.079Z,10.30
2023-04-26T12:13:52.917Z,10.55
2023-04-26T12:17:23.166Z,10.75
2023-04-26T12:20:53.950Z,10.91
2023-04-26T12:24:22.274Z,11.01
2023-04-26T12:27:49.544Z,10.85
2023-04-26T12:30:53.430Z,10.73
2023-04-26T12:34:09.737Z,10.38
2023-04-26T12:37:36.575Z,10.13
2023-04-26T12:40:47.344Z,9.92
2023-04-26T12:43:19.750Z,9.99
2023-04-26T12:45:46.758Z,10.22
2023-04-26T12:48:22.076Z,10.51
2023-04-26T12:51:47.066Z,10.81
2023-04-26T12:55:14.003Z,11.22
2023-04-26T12:58:05.348Z,11.43
2023-04-26T13:01:22.497Z,11.49
2023-04-26T13:04:40.809Z,11.40
2023-04-26T13:07:49.777Z,11.20
2023-04-26T13:10:37.630Z,10.98
2023-04-26T13:14:04.161Z,10.84
2023-04-26T13:17:30.783Z,10.59
2023-04-26T13:20:36.092Z,10.71
2023-04-26T13:23:44.984Z,11.01
2023-04-26T13:27:12.260Z,11.06
2023-04-26T13:30:01.634Z,11.13
2023-04-26T13:33:29.786Z,11.10
2023-04-26T13:36:57.091Z,11.05
2023-04-26T13:40:15.860Z,11.02
2023-04-26T13:42:44.627Z,10.91
2023-04-26T13:46:11.994Z,10.76
2023-04-26T13:49:39.130Z,10.59
2023-04-26T13:53:05.939Z,10.41
2023-04-26T13:56:12.720Z,10.38
2023-04-26T13:59:38.198Z,10.54
2023-04-26T14:02:36.089Z,10.64
2023-04-26T14:05:30.594Z,10.83
2023-04-26T14:08:38.917Z,11.06
2023-04-26T14:12:08.652Z,11.09
2023-04-26T14:15:08.351Z,10.97
2023-04-26T14:18:01.899Z,10.71
2023-04-26T14:20:53.144Z,10.50
2023-04-26T14:23:54.020Z,10.31
2023-04-26T14:27:00.005Z,10.18
2023-04-26T14:30:09.461Z,10.00
2023-04-26T14:33:01.861Z,9.91
2023-04-26T14:36:21.042Z,9.93
2023-04-26T14:39:08.608Z,10.26
2023-04-26T14:42:35.927Z,10.41
2023-04-26T14:45:36.865Z,10.46
2023-04-26T14:48:51.366Z,10.33
2023-04-26T14:51:59.533Z,10.15
2023-04-26T14:54:49.705Z,9.97
2023-04-26T14:58:00.248Z,9.81
2023-04-26T15:00:52.209Z,9.66
2023-04-26T15:04:19.505Z,9.62
2023-04-26T15:07:36.250Z,9.57
2023-04-26T15:11:03.511Z,9.49
2023-04-26T15:14:31.353Z,9.41
2023-04-26T15:17:58.609Z,9.28
2023-04-26T15:20:51.268Z,9.19
2023-04-26T15:23:47.917Z,9.19
2023-04-26T15:26:28.850Z,9.25
2023-04-26T15:29:36.512Z,9.14
2023-04-26T15:32:47.134Z,9.10
2023-04-26T15:36:13.766Z,9.04
2023-04-26T15:39:22.893Z,9.09
2023-04-26T15:42:30.153Z,9.03
2023-04-26T15:44:57.490Z,8.95
2023-04-26T15:47:24.680Z,8.94
2023-04-26T15:49:51.909Z,8.88
2023-04-26T15:52:43.040Z,8.77
2023-04-26T15:55:51.458Z,8.68
2023-04-26T15:58:19.343Z,8.62
2023-04-26T16:00:46.573Z,8.60
2023-04-26T16:03:14.031Z,8.48
2023-04-26T16:05:41.527Z,8.45
2023-04-26T16:10:52.736Z,8.39
2023-04-26T16:13:24.831Z,8.36
2023-04-26T16:15:53.576Z,8.37
2023-04-26T16:18:44.159Z,8.34
2023-04-26T16:21:13.558Z,8.29
2023-04-26T16:23:42.750Z,8.27
2023-04-26T16:26:12.286Z,8.29
2023-04-26T16:28:39.783Z,8.35
2023-04-26T16:31:08.663Z,8.39
2023-04-26T16:33:37.086Z,8.37
2023-04-26T16:37:04.420Z,8.35
2023-04-26T16:40:52.508Z,8.31
2023-04-26T16:43:48.062Z,8.23
2023-04-26T16:46:17.100Z,8.19
2023-04-26T16:49:42.734Z,8.19
2023-04-26T16:52:54.351Z,8.13
2023-04-26T16:56:03.654Z,8.04
2023-04-26T16:58:50.958Z,7.95
2023-04-26T17:01:51.305Z,7.89
2023-04-26T17:05:21.536Z,7.81
2023-04-26T17:08:16.557Z,7.74
2023-04-26T17:11:49.018Z,7.72
2023-04-26T17:14:57.942Z,7.71
2023-04-26T17:17:33.081Z,7.74
2023-04-26T17:20:21.646Z,7.68
2023-04-26T17:23:29.054Z,7.64
2023-04-26T17:26:39.413Z,7.60
2023-04-26T17:29:48.001Z,7.56
2023-04-26T17:32:35.270Z,7.50
2023-04-26T17:35:38.348Z,7.43
2023-04-26T17:38:36.765Z,7.35
2023-04-26T17:42:06.005Z,7.29
2023-04-26T17:45:06.954Z,7.21
2023-04-26T17:47:47.201Z,7.13
2023-04-26T17:50:59.133Z,7.07
2023-04-26T17:54:29.881Z,6.99
2023-04-26T17:57:57.788Z,6.92
2023-04-26T18:05:17.186Z,6.68
2023-04-26T18:07:44.600Z,6.58
2023-04-26T18:10:11.951Z,6.48
2023-04-26T18:12:41.248Z,6.36
2023-04-26T18:15:09.936Z,6.26
2023-04-26T18:17:37.410Z,6.15
2023-04-26T18:20:05.926Z,6.04
2023-04-26T18:22:35.203Z,5.92
2023-04-26T18:25:04.522Z,5.80
2023-04-26T18:27:33.196Z,5.69
2023-04-26T18:30:01.011Z,5.57
2023-04-26T18:32:28.327Z,5.46
2023-04-26T18:34:56.482Z,5.34
2023-04-26T18:37:24.586Z,5.20
2023-04-26T18:39:52.227Z,5.06
2023-04-26T18:42:22.319Z,4.95
2023-04-26T18:44:50.468Z,4.84
2023-04-26T18:47:30.020Z,4.74
2023-04-26T18:49:57.668Z,4.62
2023-04-26T18:52:26.036Z,4.51
2023-04-26T18:54:54.470Z,4.42
2023-04-26T18:57:23.643Z,4.32
2023-04-26T18:59:51.647Z,4.22
2023-04-26T19:02:20.566Z,4.13
2023-04-26T19:04:50.583Z,4.04
2023-04-26T19:07:19.255Z,3.95
2023-04-26T19:09:54.214Z,3.85
2023-04-26T19:12:23.367Z,3.77
2023-04-26T19:14:50.835Z,3.68
2023-04-26T19:17:20.342Z,3.61
2023-04-26T19:19:54.915Z,3.52
2023-04-26T19:22:24.556Z,3.44
2023-04-26T19:24:52.856Z,3.37
2023-04-26T19:27:21.592Z,3.29
2023-04-26T19:29:49.487Z,3.21
2023-04-26T19:32:19.986Z,3.13
2023-04-26T19:34:48.278Z,3.05
2023-04-26T19:37:16.574Z,2.97
2023-04-26T19:39:45.399Z,2.89
2023-04-26T19:42:13.897Z,2.80
2023-04-26T19:44:41.975Z,2.71
2023-04-26T19:47:09.950Z,2.64
2023-04-26T19:49:38.630Z,2.55
2023-04-26T19:52:09.553Z,2.48
2023-04-26T19:54:40.263Z,2.41
2023-04-26T19:57:08.561Z,2.34
2023-04-26T19:59:35.925Z,2.26
2023-04-26T20:02:07.675Z,2.18
2023-04-26T20:04:35.582Z,2.11
2023-04-26T20:07:06.386Z,2.04
2023-04-26T20:09:35.840Z,1.97
2023-04-26T20:12:06.586Z,2.03
2023-04-26T20:14:34.926Z,3.10
2023-04-26T20:17:03.699Z,4.47
2023-04-26T20:19:31.753Z,5.46
2023-04-26T20:21:59.912Z,6.16
2023-04-26T20:24:29.227Z,6.39
2023-04-26T20:26:59.357Z,5.55
2023-04-26T20:29:27.417Z,4.71
2023-04-26T20:31:55.644Z,4.13
2023-04-26T20:34:23.168Z,3.69
2023-04-26T20:36:52.063Z,3.35
2023-04-26T20:39:22.573Z,3.05
2023-04-26T20:41:50.158Z,2.79
2023-04-26T20:44:17.244Z,2.57
2023-04-26T20:46:46.307Z,2.36
2023-04-26T20:49:14.551Z,2.18
2023-04-26T20:51:42.703Z,2.02
2023-04-26T20:54:10.049Z,1.85
2023-04-26T20:56:37.472Z,1.70
2023-04-26T20:59:04.767Z,1.55
2023-04-26T21:01:32.312Z,1.42
2023-04-26T21:03:59.699Z,1.30
2023-04-26T21:06:27.797Z,1.18
2023-04-26T21:08:55.158Z,1.07
2023-04-26T21:11:22.330Z,1.13
2023-04-26T21:13:49.916Z,2.07
2023-04-26T21:16:17.653Z,3.31
2023-04-26T21:18:44.924Z,4.44
2023-04-26T21:21:12.063Z,5.24
2023-04-26T21:23:39.298Z,5.45
2023-04-26T21:26:06.466Z,4.67
2023-04-26T21:28:33.805Z,3.86
2023-04-26T21:31:05.429Z,3.28
2023-04-26T21:33:34.042Z,2.86
2023-04-26T21:36:01.280Z,2.54
2023-04-26T21:38:29.899Z,2.28
2023-04-26T21:40:57.025Z,2.05
2023-04-26T21:43:25.519Z,1.85
2023-04-26T21:45:55.906Z,1.65
2023-04-26T21:48:23.227Z,1.47
2023-04-26T21:50:51.320Z,1.31
2023-04-26T21:53:18.632Z,1.15
2023-04-26T21:55:54.084Z,1.11
2023-04-26T21:58:21.931Z,2.15
2023-04-26T22:00:50.197Z,3.45
2023-04-26T22:03:17.851Z,4.43
2023-04-26T22:05:46.158Z,5.13
2023-04-26T22:08:13.515Z,5.43
2023-04-26T22:10:40.753Z,4.65
2023-04-26T22:13:08.095Z,3.79
2023-04-26T22:15:35.281Z,3.18
2023-04-26T22:18:02.636Z,2.73
2023-04-26T22:20:30.349Z,2.40
2023-04-26T22:22:57.579Z,2.10
2023-04-26T22:25:25.545Z,1.85
2023-04-26T22:27:54.583Z,1.64
2023-04-26T22:30:25.363Z,1.43
2023-04-26T22:32:56.262Z,1.24
2023-04-26T22:35:24.898Z,1.19
2023-04-26T22:37:52.402Z,1.97
2023-04-26T22:40:20.109Z,2.97
2023-04-26T22:42:47.489Z,3.94
2023-04-26T22:45:14.892Z,4.67
2023-04-26T22:47:42.982Z,5.14
2023-04-26T22:50:10.831Z,5.33
2023-04-26T22:52:38.749Z,4.55
2023-04-26T22:55:07.186Z,3.74
2023-04-26T22:57:34.446Z,3.15
2023-04-26T23:00:01.835Z,2.72
2023-04-26T23:02:29.622Z,2.38
2023-04-26T23:04:57.196Z,2.10
2023-04-26T23:07:24.442Z,1.87
2023-04-26T23:09:52.471Z,1.68
2023-04-26T23:12:20.772Z,1.51
2023-04-26T23:14:51.140Z,1.54
2023-04-26T23:17:21.096Z,2.48
2023-04-26T23:19:48.336Z,3.55
2023-04-26T23:22:16.259Z,4.41
2023-04-26T23:24:51.320Z,5.14
2023-04-26T23:27:19.459Z,5.81
2023-04-26T23:29:47.033Z,6.05
2023-04-26T23:32:14.492Z,5.21
2023-04-26T23:34:41.801Z,4.35
2023-04-26T23:37:09.112Z,3.75
2023-04-26T23:39:36.705Z,3.32
2023-04-26T23:42:04.253Z,2.99
2023-04-26T23:44:31.562Z,2.71
2023-04-26T23:46:59.115Z,2.47
2023-04-26T23:49:26.366Z,2.25
2023-04-26T23:51:54.425Z,2.06
2023-04-26T23:54:22.003Z,2.03
2023-04-26T23:56:49.356Z,2.99
2023-04-26T23:59:17.218Z,4.07
